Meteo Giornale » Osservazioni meteo Repubblica Ceca » Praha-Ruzyne

ore: 08:30 - Osservazioni Meteo Praha-Ruzyne
Lat. 50° 6' N Lon. 14° 15' E Alt. 365 metri s.l.m.

sereno Europe/Prague

12 °C

Sereno

Temp. 24 Ore

7 °C

21 °C

Est/Nord-Est

7.4 Km/h

Dew point 0 °C

Umidità 43 %

Visibilità  10 Km

Il sole sorge alle ore 05:55

Il sole tramonta alle ore 20:07

Data e Ora Cielo e Fenomeni T °C DP °C Um. % Pres. hPa Vis. km Vento km/h
Oggi h: 08:30 sereno Sereno 12 0 43 1024 10 E/NE 7.4
Oggi h: 08:00 sereno Sereno 10 1 53 1024 10 N 1.8
Oggi h: 07:30 sereno Sereno 8 1 61 1024 10 N 1.8
Oggi h: 06:30 sereno Sereno 7 -2 52 1024 10 N 1.8
Oggi h: 06:00 sereno Sereno 9 -2 45 1024 10 N 3.7
Oggi h: 05:30 sereno Sereno 7 -1 56 1024 10 E 7.4
Oggi h: 05:00 sereno Sereno 9 -1 49 1024 10 E/NE 11.1
Oggi h: 04:30 sereno Sereno 8 -1 52 1025 10 E 9.3
Oggi h: 04:00 sereno Sereno 8 -1 52 1025 10 E/NE 9.3
Oggi h: 03:30 sereno Sereno 9 -1 49 1025 10 E 9.3
Oggi h: 03:00 sereno Sereno 9 -1 49 1025 10 N 5.5
Oggi h: 02:30 sereno Sereno 9 -1 49 1025 10 E 9.3
Oggi h: 01:30 sereno Sereno 11 -2 40 1026 10 NE 9.3
Oggi h: 01:00 sereno Sereno 10 -2 42 1026 10 E 7.4
Oggi h: 00:30 sereno Sereno 11 -2 40 1026 10 N 5.5
Oggi h: 00:00 sereno Sereno 10 -2 42 1026 10 NE 7.4
Ieri h: 23:30 sereno Sereno 13 -3 32 1026 10 E/NE 7.4
Ieri h: 23:00 sereno Sereno 13 -3 32 1026 10 N 5.5
Ieri h: 22:30 sereno Sereno 13 -3 32 1026 10 N 3.7
Ieri h: 22:00 sereno Sereno 15 -3 28 1026 10 N 7.4
Ieri h: 21:30 sereno Sereno 15 -3 28 1026 10 NE 11.1
Ieri h: 21:00 sereno Sereno 15 -3 28 1026 10 N/NE 9.3
Ieri h: 20:30 sereno Sereno 16 -4 24 1026 10 N 5.5
Ieri h: 20:00 sereno Sereno 17 -3 25 1026 10 N 3.7
Ieri h: 19:30 sereno Sereno 17 -0 31 1026 10 N 1.8
Ieri h: 19:00 sereno Sereno 20 6 39 1026 10 N 3.7
Ieri h: 18:30 sereno Sereno 21 -4 18 1026 10 N 1.8
Ieri h: 18:00 sereno Sereno 21 -5 16 1026 10 N 1.8
Ieri h: 17:30 sereno Sereno 20 -4 19 1027 10 N 5.5
Ieri h: 17:00 sereno Sereno 20 -3 20 1027 10 N 5.5
Ieri h: 16:30 sereno Sereno 20 -4 19 1027 10 NE 7.4
Ieri h: 16:00 sereno Sereno 20 -3 20 1028 10 N/NO 7.4
Ieri h: 15:30 sereno Sereno 20 -3 20 1028 10 NO 9.3
Ieri h: 15:00 sereno Sereno 20 -1 24 1028 10 N 7.4
Ieri h: 14:30 sereno Sereno 20 -1 24 1029 10 N 7.4
Ieri h: 14:00 sereno Sereno 20 -1 24 1029 10 NE 7.4
Ieri h: 13:30 sereno Sereno 19 -2 24 1029 10 N 7.4
Ieri h: 13:00 sereno Sereno 19 -2 24 1029 10 N/NE 14.8
Ieri h: 12:30 sereno Sereno 19 -2 24 1029 10 N 9.3
Ieri h: 12:00 sereno Sereno 18 -3 23 1030 10 N 5.5
Ieri h: 11:30 sereno Sereno 18 2 34 1030 10 N 3.7
Ieri h: 11:00 sereno Sereno 17 3 39 1030 10 N 3.7
Ieri h: 10:30 sereno Sereno 16 3 41 1030 10 N 5.5
Ieri h: 10:00 sereno Sereno 14 2 44 1030 10 N 5.5
Ieri h: 09:30 sereno Sereno 13 2 47 1030 10 N/NE 7.4
Ieri h: 09:00 sereno Sereno 12 2 50 1030 10 N 7.4